<?xml version="1.0" encoding="utf-8"?>
<gpx xmlns:xsi="http://www.w3.org/2001/XMLSchema-instance" xmlns:xsd="http://www.w3.org/2001/XMLSchema" version="1.1" creator="Shapelink.com" xmlns="http://www.topografix.com/GPX/1/1" xmlns:gpxtpx="http://www.garmin.com/xmlschemas/TrackPointExtension/v1">
  <metadata>
    <name>Cykling 2.25 km, 2014-04-01</name>
    <desc></desc>
    <author><name>Alexander Engvall</name></author> 
    <time>2014-04-01T08:52:04Z</time>
  </metadata>
  <trk>
    <name>Cykling 2.25 km, 2014-04-01</name>
    <trkseg>
      <trkpt lat="59.23799447033" lon="17.947095705587">
        <ele>0</ele>
        <time>2014-04-01T08:52:04Z</time>
      </trkpt>
      <trkpt lat="59.23800117585" lon="17.947059998693">
        <ele>0</ele>
        <time>2014-04-01T08:52:05Z</time>
      </trkpt>
      <trkpt lat="59.238007629913" lon="17.947024710894">
        <ele>0</ele>
        <time>2014-04-01T08:52:06Z</time>
      </trkpt>
      <trkpt lat="59.238019364573" lon="17.946991350932">
        <ele>0</ele>
        <time>2014-04-01T08:52:07Z</time>
      </trkpt>
      <trkpt lat="59.23805649639" lon="17.946812565005">
        <ele>0</ele>
        <time>2014-04-01T08:52:10Z</time>
      </trkpt>
      <trkpt lat="59.23811265512" lon="17.946628163205">
        <ele>0</ele>
        <time>2014-04-01T08:52:14Z</time>
      </trkpt>
      <trkpt lat="59.238223966752" lon="17.946834860859">
        <ele>0</ele>
        <time>2014-04-01T08:52:18Z</time>
      </trkpt>
      <trkpt lat="59.238409206742" lon="17.947241718285">
        <ele>0</ele>
        <time>2014-04-01T08:52:23Z</time>
      </trkpt>
      <trkpt lat="59.238611881084" lon="17.947768017786">
        <ele>0</ele>
        <time>2014-04-01T08:52:29Z</time>
      </trkpt>
      <trkpt lat="59.238636691508" lon="17.947860051048">
        <ele>0</ele>
        <time>2014-04-01T08:52:30Z</time>
      </trkpt>
      <trkpt lat="59.23869184441" lon="17.948186274596">
        <ele>0</ele>
        <time>2014-04-01T08:52:33Z</time>
      </trkpt>
      <trkpt lat="59.238703662889" lon="17.948409484593">
        <ele>0</ele>
        <time>2014-04-01T08:52:35Z</time>
      </trkpt>
      <trkpt lat="59.238741632896" lon="17.948714669572">
        <ele>0</ele>
        <time>2014-04-01T08:52:38Z</time>
      </trkpt>
      <trkpt lat="59.23879913273" lon="17.948890773291">
        <ele>0</ele>
        <time>2014-04-01T08:52:40Z</time>
      </trkpt>
      <trkpt lat="59.238863757179" lon="17.9490509514">
        <ele>0</ele>
        <time>2014-04-01T08:52:42Z</time>
      </trkpt>
      <trkpt lat="59.238889992526" lon="17.949136614418">
        <ele>0</ele>
        <time>2014-04-01T08:52:43Z</time>
      </trkpt>
      <trkpt lat="59.238942211763" lon="17.949274077578">
        <ele>0</ele>
        <time>2014-04-01T08:52:45Z</time>
      </trkpt>
      <trkpt lat="59.239002142348" lon="17.949481864879">
        <ele>0</ele>
        <time>2014-04-01T08:52:48Z</time>
      </trkpt>
      <trkpt lat="59.239014128465" lon="17.949634583097">
        <ele>0</ele>
        <time>2014-04-01T08:52:50Z</time>
      </trkpt>
      <trkpt lat="59.239021923632" lon="17.949787552772">
        <ele>0.2</ele>
        <time>2014-04-01T08:52:52Z</time>
      </trkpt>
      <trkpt lat="59.239022845641" lon="17.949860810578">
        <ele>0.6</ele>
        <time>2014-04-01T08:52:53Z</time>
      </trkpt>
      <trkpt lat="59.239023516193" lon="17.949947647062">
        <ele>1.2</ele>
        <time>2014-04-01T08:52:54Z</time>
      </trkpt>
      <trkpt lat="59.239025527849" lon="17.950053259002">
        <ele>1.6</ele>
        <time>2014-04-01T08:52:55Z</time>
      </trkpt>
      <trkpt lat="59.239030724627" lon="17.950173539267">
        <ele>2</ele>
        <time>2014-04-01T08:52:56Z</time>
      </trkpt>
      <trkpt lat="59.239047907522" lon="17.95040462825">
        <ele>2</ele>
        <time>2014-04-01T08:52:58Z</time>
      </trkpt>
      <trkpt lat="59.239102725148" lon="17.950761948647">
        <ele>2</ele>
        <time>2014-04-01T08:53:01Z</time>
      </trkpt>
      <trkpt lat="59.239260556325" lon="17.951855367502">
        <ele>2</ele>
        <time>2014-04-01T08:53:10Z</time>
      </trkpt>
      <trkpt lat="59.239281259618" lon="17.951973803749">
        <ele>2</ele>
        <time>2014-04-01T08:53:11Z</time>
      </trkpt>
      <trkpt lat="59.239310680087" lon="17.952084612467">
        <ele>2</ele>
        <time>2014-04-01T08:53:12Z</time>
      </trkpt>
      <trkpt lat="59.239428278144" lon="17.952204976551">
        <ele>2</ele>
        <time>2014-04-01T08:53:14Z</time>
      </trkpt>
      <trkpt lat="59.239622402948" lon="17.952172287141">
        <ele>2</ele>
        <time>2014-04-01T08:53:17Z</time>
      </trkpt>
      <trkpt lat="59.239690044881" lon="17.952156361531">
        <ele>2</ele>
        <time>2014-04-01T08:53:18Z</time>
      </trkpt>
      <trkpt lat="59.239851815551" lon="17.952265912964">
        <ele>2</ele>
        <time>2014-04-01T08:53:21Z</time>
      </trkpt>
      <trkpt lat="59.239949297048" lon="17.952570595029">
        <ele>2</ele>
        <time>2014-04-01T08:53:24Z</time>
      </trkpt>
      <trkpt lat="59.240181643316" lon="17.953372910497">
        <ele>2</ele>
        <time>2014-04-01T08:53:31Z</time>
      </trkpt>
      <trkpt lat="59.240340815597" lon="17.954000211893">
        <ele>2</ele>
        <time>2014-04-01T08:53:36Z</time>
      </trkpt>
      <trkpt lat="59.240530917089" lon="17.954643522718">
        <ele>2</ele>
        <time>2014-04-01T08:53:42Z</time>
      </trkpt>
      <trkpt lat="59.240735938363" lon="17.955470480972">
        <ele>2</ele>
        <time>2014-04-01T08:53:49Z</time>
      </trkpt>
      <trkpt lat="59.240746667195" lon="17.955596125653">
        <ele>2</ele>
        <time>2014-04-01T08:53:50Z</time>
      </trkpt>
      <trkpt lat="59.240823948313" lon="17.956332140292">
        <ele>2</ele>
        <time>2014-04-01T08:53:56Z</time>
      </trkpt>
      <trkpt lat="59.24085940375" lon="17.956571527356">
        <ele>2.4</ele>
        <time>2014-04-01T08:53:58Z</time>
      </trkpt>
      <trkpt lat="59.24087030022" lon="17.956702117358">
        <ele>2.8</ele>
        <time>2014-04-01T08:53:59Z</time>
      </trkpt>
      <trkpt lat="59.240874239713" lon="17.956836479215">
        <ele>3.4</ele>
        <time>2014-04-01T08:54:00Z</time>
      </trkpt>
      <trkpt lat="59.240884046536" lon="17.956970002882">
        <ele>3.8</ele>
        <time>2014-04-01T08:54:01Z</time>
      </trkpt>
      <trkpt lat="59.240897541395" lon="17.957098162133">
        <ele>4.2</ele>
        <time>2014-04-01T08:54:02Z</time>
      </trkpt>
      <trkpt lat="59.24091137153" lon="17.957228752135">
        <ele>4.2</ele>
        <time>2014-04-01T08:54:03Z</time>
      </trkpt>
      <trkpt lat="59.240962082025" lon="17.95773962894">
        <ele>4.2</ele>
        <time>2014-04-01T08:54:07Z</time>
      </trkpt>
      <trkpt lat="59.24105470202" lon="17.958575723465">
        <ele>4.2</ele>
        <time>2014-04-01T08:54:14Z</time>
      </trkpt>
      <trkpt lat="59.2411485793" lon="17.959433108016">
        <ele>4.2</ele>
        <time>2014-04-01T08:54:21Z</time>
      </trkpt>
      <trkpt lat="59.241192751913" lon="17.959890508299">
        <ele>4.2</ele>
        <time>2014-04-01T08:54:26Z</time>
      </trkpt>
      <trkpt lat="59.241194931207" lon="17.959974830213">
        <ele>4.2</ele>
        <time>2014-04-01T08:54:27Z</time>
      </trkpt>
      <trkpt lat="59.241199122157" lon="17.960047249829">
        <ele>4.6</ele>
        <time>2014-04-01T08:54:28Z</time>
      </trkpt>
      <trkpt lat="59.241200044166" lon="17.960123022205">
        <ele>5.4</ele>
        <time>2014-04-01T08:54:29Z</time>
      </trkpt>
      <trkpt lat="59.241206498229" lon="17.960201728246">
        <ele>5.8</ele>
        <time>2014-04-01T08:54:30Z</time>
      </trkpt>
      <trkpt lat="59.241204151297" lon="17.960296862811">
        <ele>6.2</ele>
        <time>2014-04-01T08:54:31Z</time>
      </trkpt>
      <trkpt lat="59.241198116329" lon="17.960617889581">
        <ele>6.2</ele>
        <time>2014-04-01T08:54:34Z</time>
      </trkpt>
      <trkpt lat="59.241193338646" lon="17.960864820355">
        <ele>6.2</ele>
        <time>2014-04-01T08:54:36Z</time>
      </trkpt>
      <trkpt lat="59.241195266483" lon="17.961094652053">
        <ele>6.2</ele>
        <time>2014-04-01T08:54:38Z</time>
      </trkpt>
      <trkpt lat="59.241218232889" lon="17.961561691521">
        <ele>6.2</ele>
        <time>2014-04-01T08:54:42Z</time>
      </trkpt>
      <trkpt lat="59.24122150183" lon="17.962039795097">
        <ele>6.2</ele>
        <time>2014-04-01T08:54:46Z</time>
      </trkpt>
      <trkpt lat="59.241216305052" lon="17.962288737527">
        <ele>6.2</ele>
        <time>2014-04-01T08:54:48Z</time>
      </trkpt>
      <trkpt lat="59.241225189866" lon="17.963380982916">
        <ele>6.2</ele>
        <time>2014-04-01T08:54:57Z</time>
      </trkpt>
      <trkpt lat="59.241225944237" lon="17.963495060575">
        <ele>6.2</ele>
        <time>2014-04-01T08:54:58Z</time>
      </trkpt>
      <trkpt lat="59.241233404128" lon="17.964177011959">
        <ele>6.2</ele>
        <time>2014-04-01T08:55:04Z</time>
      </trkpt>
      <trkpt lat="59.241233655585" lon="17.964431486443">
        <ele>6.2</ele>
        <time>2014-04-01T08:55:07Z</time>
      </trkpt>
      <trkpt lat="59.241236170155" lon="17.964623264315">
        <ele>6.2</ele>
        <time>2014-04-01T08:55:09Z</time>
      </trkpt>
      <trkpt lat="59.241242037485" lon="17.965006652421">
        <ele>6.2</ele>
        <time>2014-04-01T08:55:13Z</time>
      </trkpt>
      <trkpt lat="59.241240025829" lon="17.965060715676">
        <ele>6.2</ele>
        <time>2014-04-01T08:55:14Z</time>
      </trkpt>
      <trkpt lat="59.241247066625" lon="17.965299096912">
        <ele>6.2</ele>
        <time>2014-04-01T08:55:17Z</time>
      </trkpt>
      <trkpt lat="59.241250167928" lon="17.965399679712">
        <ele>5.8</ele>
        <time>2014-04-01T08:55:18Z</time>
      </trkpt>
      <trkpt lat="59.241249497376" lon="17.965512332448">
        <ele>5.2</ele>
        <time>2014-04-01T08:55:19Z</time>
      </trkpt>
      <trkpt lat="59.241248659186" lon="17.96563118779">
        <ele>4.8</ele>
        <time>2014-04-01T08:55:20Z</time>
      </trkpt>
      <trkpt lat="59.241249078281" lon="17.965748785847">
        <ele>4.4</ele>
        <time>2014-04-01T08:55:21Z</time>
      </trkpt>
      <trkpt lat="59.241248240091" lon="17.965872754148">
        <ele>3.8</ele>
        <time>2014-04-01T08:55:22Z</time>
      </trkpt>
      <trkpt lat="59.241248575367" lon="17.966001751589">
        <ele>3.4</ele>
        <time>2014-04-01T08:55:23Z</time>
      </trkpt>
      <trkpt lat="59.241246982806" lon="17.966132509229">
        <ele>3</ele>
        <time>2014-04-01T08:55:24Z</time>
      </trkpt>
      <trkpt lat="59.241244887331" lon="17.966263518326">
        <ele>2.6</ele>
        <time>2014-04-01T08:55:25Z</time>
      </trkpt>
      <trkpt lat="59.241243713865" lon="17.966394192147">
        <ele>2</ele>
        <time>2014-04-01T08:55:26Z</time>
      </trkpt>
      <trkpt lat="59.241239858191" lon="17.966534337515">
        <ele>1.6</ele>
        <time>2014-04-01T08:55:27Z</time>
      </trkpt>
      <trkpt lat="59.241228374988" lon="17.966795349881">
        <ele>1.6</ele>
        <time>2014-04-01T08:55:29Z</time>
      </trkpt>
      <trkpt lat="59.241174730828" lon="17.967627924008">
        <ele>1.2</ele>
        <time>2014-04-01T08:55:35Z</time>
      </trkpt>
      <trkpt lat="59.241165929833" lon="17.96777108686">
        <ele>0.6</ele>
        <time>2014-04-01T08:55:36Z</time>
      </trkpt>
      <trkpt lat="59.24115947577" lon="17.967911567504">
        <ele>0.2</ele>
        <time>2014-04-01T08:55:37Z</time>
      </trkpt>
      <trkpt lat="59.241147238196" lon="17.9680527187">
        <ele>0</ele>
        <time>2014-04-01T08:55:38Z</time>
      </trkpt>
      <trkpt lat="59.241131647862" lon="17.968183979254">
        <ele>0</ele>
        <time>2014-04-01T08:55:39Z</time>
      </trkpt>
      <trkpt lat="59.241105747791" lon="17.968458151203">
        <ele>0</ele>
        <time>2014-04-01T08:55:41Z</time>
      </trkpt>
      <trkpt lat="59.241088564896" lon="17.968722851605">
        <ele>0</ele>
        <time>2014-04-01T08:55:43Z</time>
      </trkpt>
      <trkpt lat="59.241102311212" lon="17.968978583374">
        <ele>0</ele>
        <time>2014-04-01T08:55:45Z</time>
      </trkpt>
      <trkpt lat="59.241125361437" lon="17.969090900834">
        <ele>0</ele>
        <time>2014-04-01T08:55:46Z</time>
      </trkpt>
      <trkpt lat="59.241155452458" lon="17.969196177498">
        <ele>0</ele>
        <time>2014-04-01T08:55:47Z</time>
      </trkpt>
      <trkpt lat="59.24118881242" lon="17.969282427249">
        <ele>0</ele>
        <time>2014-04-01T08:55:48Z</time>
      </trkpt>
      <trkpt lat="59.241223094391" lon="17.969356355607">
        <ele>0</ele>
        <time>2014-04-01T08:55:49Z</time>
      </trkpt>
      <trkpt lat="59.241246144616" lon="17.969425087187">
        <ele>0</ele>
        <time>2014-04-01T08:55:50Z</time>
      </trkpt>
      <trkpt lat="59.24125419124" lon="17.969579733242">
        <ele>0</ele>
        <time>2014-04-01T08:55:52Z</time>
      </trkpt>
      <trkpt lat="59.241144555988" lon="17.969816773374">
        <ele>0</ele>
        <time>2014-04-01T08:55:55Z</time>
      </trkpt>
      <trkpt lat="59.240930230805" lon="17.970282974652">
        <ele>0</ele>
        <time>2014-04-01T08:55:59Z</time>
      </trkpt>
      <trkpt lat="59.240599732488" lon="17.970946653494">
        <ele>0</ele>
        <time>2014-04-01T08:56:05Z</time>
      </trkpt>
      <trkpt lat="59.240333355706" lon="17.971517963798">
        <ele>0</ele>
        <time>2014-04-01T08:56:10Z</time>
      </trkpt>
      <trkpt lat="59.240272838388" lon="17.971633550199">
        <ele>0</ele>
        <time>2014-04-01T08:56:11Z</time>
      </trkpt>
      <trkpt lat="59.240214248907" lon="17.971756093577">
        <ele>0</ele>
        <time>2014-04-01T08:56:12Z</time>
      </trkpt>
      <trkpt lat="59.240160772385" lon="17.971873691634">
        <ele>0</ele>
        <time>2014-04-01T08:56:13Z</time>
      </trkpt>
      <trkpt lat="59.240109894252" lon="17.97198299161">
        <ele>0</ele>
        <time>2014-04-01T08:56:14Z</time>
      </trkpt>
      <trkpt lat="59.239831866629" lon="17.97253787339">
        <ele>0</ele>
        <time>2014-04-01T08:56:19Z</time>
      </trkpt>
      <trkpt lat="59.23977310951" lon="17.972613561947">
        <ele>0</ele>
        <time>2014-04-01T08:56:20Z</time>
      </trkpt>
      <trkpt lat="59.23972114173" lon="17.972671061781">
        <ele>0</ele>
        <time>2014-04-01T08:56:21Z</time>
      </trkpt>
      <trkpt lat="59.239676047108" lon="17.972743649035">
        <ele>0</ele>
        <time>2014-04-01T08:56:22Z</time>
      </trkpt>
      <trkpt lat="59.239645788449" lon="17.97283207808">
        <ele>0</ele>
        <time>2014-04-01T08:56:23Z</time>
      </trkpt>
      <trkpt lat="59.239631203943" lon="17.972939534038">
        <ele>0</ele>
        <time>2014-04-01T08:56:24Z</time>
      </trkpt>
      <trkpt lat="59.239626677717" lon="17.973060568674">
        <ele>0</ele>
        <time>2014-04-01T08:56:25Z</time>
      </trkpt>
      <trkpt lat="59.239590132633" lon="17.973291825295">
        <ele>0</ele>
        <time>2014-04-01T08:56:27Z</time>
      </trkpt>
      <trkpt lat="59.239579152344" lon="17.973405651497">
        <ele>0</ele>
        <time>2014-04-01T08:56:28Z</time>
      </trkpt>
      <trkpt lat="59.23957529667" lon="17.973510928161">
        <ele>0</ele>
        <time>2014-04-01T08:56:29Z</time>
      </trkpt>
      <trkpt lat="59.23957529667" lon="17.974041418612">
        <ele>0</ele>
        <time>2014-04-01T08:56:33Z</time>
      </trkpt>
      <trkpt lat="59.23958451676" lon="17.974330007429">
        <ele>0</ele>
        <time>2014-04-01T08:56:35Z</time>
      </trkpt>
      <trkpt lat="59.239570938082" lon="17.974578111669">
        <ele>0</ele>
        <time>2014-04-01T08:56:37Z</time>
      </trkpt>
      <trkpt lat="59.239542355803" lon="17.974679867935">
        <ele>0</ele>
        <time>2014-04-01T08:56:38Z</time>
      </trkpt>
      <trkpt lat="59.239501787407" lon="17.97476326784">
        <ele>0</ele>
        <time>2014-04-01T08:56:39Z</time>
      </trkpt>
      <trkpt lat="59.239459123536" lon="17.974844488451">
        <ele>0</ele>
        <time>2014-04-01T08:56:40Z</time>
      </trkpt>
      <trkpt lat="59.239413274543" lon="17.974916740429">
        <ele>0</ele>
        <time>2014-04-01T08:56:41Z</time>
      </trkpt>
      <trkpt lat="59.239364659523" lon="17.975000224153">
        <ele>0</ele>
        <time>2014-04-01T08:56:42Z</time>
      </trkpt>
      <trkpt lat="59.239229543295" lon="17.975253022257">
        <ele>0</ele>
        <time>2014-04-01T08:56:45Z</time>
      </trkpt>
      <trkpt lat="59.238976409915" lon="17.975717379517">
        <ele>0</ele>
        <time>2014-04-01T08:56:50Z</time>
      </trkpt>
      <trkpt lat="59.238819919842" lon="17.976055086268">
        <ele>0</ele>
        <time>2014-04-01T08:56:53Z</time>
      </trkpt>
      <trkpt lat="59.238766946234" lon="17.976184083709">
        <ele>0</ele>
        <time>2014-04-01T08:56:54Z</time>
      </trkpt>
      <trkpt lat="59.238719588499" lon="17.976305788897">
        <ele>0</ele>
        <time>2014-04-01T08:56:55Z</time>
      </trkpt>
      <trkpt lat="59.238674829153" lon="17.976436630356">
        <ele>0</ele>
        <time>2014-04-01T08:56:56Z</time>
      </trkpt>
      <trkpt lat="59.23862311283" lon="17.976556575345">
        <ele>0</ele>
        <time>2014-04-01T08:56:57Z</time>
      </trkpt>
      <trkpt lat="59.238517752347" lon="17.976803170843">
        <ele>0</ele>
        <time>2014-04-01T08:56:59Z</time>
      </trkpt>
      <trkpt lat="59.238451451518" lon="17.97690735786">
        <ele>0</ele>
        <time>2014-04-01T08:57:00Z</time>
      </trkpt>
      <trkpt lat="59.238393951684" lon="17.977025710288">
        <ele>0</ele>
        <time>2014-04-01T08:57:01Z</time>
      </trkpt>
      <trkpt lat="59.238357741876" lon="17.977142218698">
        <ele>0</ele>
        <time>2014-04-01T08:57:02Z</time>
      </trkpt>
      <trkpt lat="59.238326561208" lon="17.97725520671">
        <ele>0</ele>
        <time>2014-04-01T08:57:03Z</time>
      </trkpt>
      <trkpt lat="59.238296386368" lon="17.977363836134">
        <ele>0</ele>
        <time>2014-04-01T08:57:04Z</time>
      </trkpt>
      <trkpt lat="59.23816881385" lon="17.977821236417">
        <ele>0</ele>
        <time>2014-04-01T08:57:08Z</time>
      </trkpt>
      <trkpt lat="59.238117348984" lon="17.977940427035">
        <ele>0</ele>
        <time>2014-04-01T08:57:09Z</time>
      </trkpt>
      <trkpt lat="59.238070913258" lon="17.978068670105">
        <ele>0</ele>
        <time>2014-04-01T08:57:10Z</time>
      </trkpt>
      <trkpt lat="59.23802632155" lon="17.978179814099">
        <ele>0</ele>
        <time>2014-04-01T08:57:11Z</time>
      </trkpt>
      <trkpt lat="59.237977957987" lon="17.978301351649">
        <ele>0</ele>
        <time>2014-04-01T08:57:12Z</time>
      </trkpt>
      <trkpt lat="59.237927666587" lon="17.978409226702">
        <ele>0</ele>
        <time>2014-04-01T08:57:13Z</time>
      </trkpt>
      <trkpt lat="59.237827838158" lon="17.978624892989">
        <ele>0</ele>
        <time>2014-04-01T08:57:15Z</time>
      </trkpt>
      <trkpt lat="59.237782072984" lon="17.97864911668">
        <ele>0</ele>
        <time>2014-04-01T08:57:16Z</time>
      </trkpt>
      <trkpt lat="59.237756843465" lon="17.978665461385">
        <ele>0</ele>
        <time>2014-04-01T08:57:17Z</time>
      </trkpt>
      <trkpt lat="59.237609824939" lon="17.978751208222">
        <ele>0</ele>
        <time>2014-04-01T08:57:19Z</time>
      </trkpt>
      <trkpt lat="59.23755693515" lon="17.978775264275">
        <ele>0</ele>
        <time>2014-04-01T08:57:20Z</time>
      </trkpt>
      <trkpt lat="59.237491472511" lon="17.978831590643">
        <ele>0</ele>
        <time>2014-04-01T08:57:21Z</time>
      </trkpt>
      <trkpt lat="59.237418382343" lon="17.978871153211">
        <ele>0</ele>
        <time>2014-04-01T08:57:22Z</time>
      </trkpt>
      <trkpt lat="59.237349986039" lon="17.978907363019">
        <ele>0</ele>
        <time>2014-04-01T08:57:23Z</time>
      </trkpt>
      <trkpt lat="59.237283014658" lon="17.978933682185">
        <ele>0</ele>
        <time>2014-04-01T08:57:24Z</time>
      </trkpt>
      <trkpt lat="59.23721495363" lon="17.978981542834">
        <ele>0</ele>
        <time>2014-04-01T08:57:25Z</time>
      </trkpt>
      <trkpt lat="59.237116298667" lon="17.979068044042">
        <ele>0</ele>
        <time>2014-04-01T08:57:26Z</time>
      </trkpt>
      <trkpt lat="59.237059804661" lon="17.979177846932">
        <ele>0</ele>
        <time>2014-04-01T08:57:27Z</time>
      </trkpt>
      <trkpt lat="59.23702049355" lon="17.979278345913">
        <ele>0</ele>
        <time>2014-04-01T08:57:28Z</time>
      </trkpt>
      <trkpt lat="59.236977326765" lon="17.979375659772">
        <ele>0</ele>
        <time>2014-04-01T08:57:29Z</time>
      </trkpt>
      <trkpt lat="59.236952683979" lon="17.979445816275">
        <ele>0</ele>
        <time>2014-04-01T08:57:30Z</time>
      </trkpt>
      <trkpt lat="59.236925107528" lon="17.979493509286">
        <ele>0</ele>
        <time>2014-04-01T08:57:31Z</time>
      </trkpt>
      <trkpt lat="59.236896106154" lon="17.979547740179">
        <ele>0</ele>
        <time>2014-04-01T08:57:32Z</time>
      </trkpt>
    </trkseg>
  </trk>
</gpx>